Time;durP1;ratioP1;P1;durP2;ratioP2;P2;SDS_P1;SDS_P2;PMS_P1;PMS_P2;Temp;Humidity;BMP_temperature;BMP_pressure;BME280_temperature;BME280_humidity;BME280_pressure;Samples;Min_cycle;Max_cycle;Signal;HPM_P1;HPM_P2
2023/08/02 00:01:45;;;;;;;;;;;;;;;;;;;;;
2023/08/02 00:05:49;;;;;;;7.70;3.80;;;;;;;13.53;86.05;99064.13;127984;1300;129096;-67
2023/08/02 00:09:52;;;;;;;11.10;3.30;;;;;;;13.49;86.32;99065.73;126568;1289;115244;-69
2023/08/02 00:13:53;;;;;;;7.70;3.20;;;;;;;13.44;85.96;99070.98;121858;1323;5434361;-69
2023/08/02 00:22:20;;;;;;;6.10;3.60;;;;;;;13.38;86.33;99074.79;125932;1296;637750;-68
2023/08/02 00:26:22;;;;;;;7.00;3.70;;;;;;;13.32;86.47;99069.02;127513;1305;128547;-68
2023/08/02 00:30:30;;;;;;;5.80;3.20;;;;;;;13.27;86.49;99076.10;126104;1298;115317;-67
2023/08/02 00:34:31;;;;;;;3.50;3.10;;;;;;;13.22;86.60;99078.81;121226;1305;5513921;-69
2023/08/02 00:38:24;;;;;;;;;;;;;;;;;;;;;
2023/08/02 00:42:47;;;;;;;6.50;4.10;;;;;;;13.16;86.85;99080.58;125619;1299;636088;-68
2023/08/02 00:46:50;;;;;;;6.30;3.60;;;;;;;13.11;87.06;99079.52;128055;1300;127951;-65
2023/08/02 00:50:52;;;;;;;6.80;3.80;;;;;;;13.09;87.37;99080.58;128184;1276;115309;-68
2023/08/02 00:54:56;;;;;;;5.90;3.30;;;;;;;13.07;87.45;99083.77;124199;1281;5423798;-66
2023/08/02 00:58:57;;;;;;;5.90;3.90;;;;;;;13.05;87.34;99086.23;126764;1291;114876;-68
2023/08/02 01:07:00;;;;;;;7.30;4.40;;;;;;;13.01;87.80;99094.75;125585;1313;129862;-68
2023/08/02 01:11:10;;;;;;;5.70;3.90;;;;;;;12.99;87.87;99094.95;125649;1321;115020;-67
2023/08/02 01:27:39;;;;;;;9.60;4.60;;;;;;;12.89;88.25;99100.19;127982;1287;128970;-66
2023/08/02 01:31:42;;;;;;;5.80;4.10;;;;;;;12.86;87.90;99101.93;127783;1280;114951;-67
2023/08/02 01:35:26;;;;;;;;;;;;;;;;;;;;;
2023/08/02 01:47:38;;;;;;;10.50;4.30;;;;;;;12.73;88.01;99112.06;125539;1306;129915;-69
2023/08/02 01:51:40;;;;;;;7.30;4.20;;;;;;;12.69;88.16;99112.14;124959;1321;115415;-67
2023/08/02 02:00:07;;;;;;;8.50;4.20;;;;;;;12.65;88.40;99115.69;125881;1298;637349;-69
2023/08/02 02:04:10;;;;;;;4.30;3.90;;;;;;;12.60;88.25;99120.92;128841;1275;128242;-70
2023/08/02 02:08:10;;;;;;;;;;;;;;;;;;;;;
2023/08/02 02:20:17;;;;;;;6.90;3.80;;;;;;;12.46;88.57;99123.93;125667;1315;114887;-64
2023/08/02 02:28:42;;;;;;;12.60;4.60;;;;;;;12.43;88.23;99127.59;126040;1302;636178;-67
2023/08/02 02:32:45;;;;;;;8.00;3.70;;;;;;;12.37;88.72;99125.86;127447;1283;127662;-69
2023/08/02 02:36:46;;;;;;;;;;;;;;;;;;;;;
2023/08/02 02:41:04;;;;;;;4.80;3.70;;;;;;;12.32;88.59;99127.33;121833;1316;5448930;-67
2023/08/02 02:49:19;;;;;;;7.70;3.60;;;;;;;12.27;88.72;99135.02;125888;1301;637378;-65
2023/08/02 02:53:19;;;;;;;9.00;3.90;;;;;;;12.22;88.77;99140.59;128594;1272;128981;-69
2023/08/02 02:57:18;;;;;;;4.70;2.50;;;;;;;12.20;88.88;99141.64;128065;1283;116374;-67
2023/08/02 03:05:12;;;;;;;;;;;;;;;;;;;;;
2023/08/02 03:13:43;;;;;;;5.30;4.10;;;;;;;12.10;88.98;99143.00;127030;1290;640062;-68
2023/08/02 03:17:38;;;;;;;;;;;;;;;;;;;;;
2023/08/02 03:21:43;;;;;;;11.30;4.00;;;;;;;12.03;89.22;99147.91;127046;1290;114963;-67
2023/08/02 03:25:50;;;;;;;6.10;3.30;;;;;;;12.01;89.25;99149.36;122526;1295;5422058;-67
2023/08/02 03:29:50;;;;;;;;;;;;;;;;;;;;;
2023/08/02 03:33:52;;;;;;;9.00;5.10;;;;;;;11.97;89.56;99154.59;125124;1305;115101;-66
2023/08/02 03:42:18;;;;;;;11.40;4.50;;;;;;;12.01;89.72;99160.36;126476;1295;635945;-68
2023/08/02 03:46:17;;;;;;;12.40;4.40;;;;;;;12.02;89.64;99156.61;128638;1275;126997;-68
2023/08/02 03:50:20;;;;;;;9.70;3.50;;;;;;;12.05;89.68;99156.56;128032;1297;115240;-68
2023/08/02 03:54:13;;;;;;;5.40;3.90;;;;;;;12.09;89.77;99163.05;122969;1291;5433859;-67
2023/08/02 04:02:16;;;;;;;4.70;3.90;;;;;;;12.18;89.97;99163.80;126248;1299;114856;-67
2023/08/02 04:06:17;;;;;;;7.00;3.90;;;;;;;12.24;90.02;99167.36;125247;1325;116602;-69
2023/08/02 04:14:42;;;;;;;8.70;4.30;;;;;;;12.41;90.26;99165.17;126261;1295;636240;-67
2023/08/02 04:18:44;;;;;;;10.20;5.60;;;;;;;12.50;90.50;99163.22;127442;1305;127827;-67
2023/08/02 04:22:49;;;;;;;11.70;7.10;;;;;;;12.64;90.99;99162.38;128043;1300;115244;-66
2023/08/02 04:26:51;;;;;;;8.20;5.90;;;;;;;12.79;91.05;99164.64;122827;1291;5440200;-66
2023/08/02 04:39:16;;;;;;;;;;;;;;;;;;;;;
2023/08/02 04:43:20;;;;;;;9.10;6.30;;;;;;;13.75;92.97;99167.16;127285;1296;115292;-66
2023/08/02 04:47:17;;;;;;;12.40;4.80;;;;;;;14.11;92.95;99162.41;123143;1290;5438581;-68
2023/08/02 04:51:21;;;;;;;9.40;5.50;;;;;;;14.36;92.53;99163.45;127858;1281;114929;-67
2023/08/02 04:59:23;;;;;;;7.60;4.50;;;;;;;14.67;91.34;99159.73;126829;1293;114951;-65
2023/08/02 05:03:25;;;;;;;9.10;4.70;;;;;;;14.91;92.33;99159.33;126321;1315;130279;-68
2023/08/02 05:15:36;;;;;;;8.60;4.70;;;;;;;16.92;91.82;99162.25;126002;1297;636468;-69
2023/08/02 05:23:41;;;;;;;7.40;3.50;;;;;;;18.07;90.20;99161.40;126869;1309;115306;-68
2023/08/02 05:27:43;;;;;;;7.30;4.30;;;;;;;18.24;88.35;99166.91;121920;1321;5456064;-67
2023/08/02 05:40:05;;;;;;;;;;;;;;;;;;;;;
2023/08/02 05:44:10;;;;;;;4.20;3.50;;;;;;;19.05;85.25;99167.46;126652;1300;115467;-68
2023/08/02 05:48:02;;;;;;;5.30;2.90;;;;;;;19.29;84.75;99172.22;121807;1309;5440391;-67
2023/08/02 05:52:04;;;;;;;10.60;3.50;;;;;;;19.53;84.10;99168.34;124175;1316;115281;-67
2023/08/02 06:00:31;;;;;;;10.10;3.20;;;;;;;20.10;82.68;99185.98;125650;1312;636115;-67
2023/08/02 06:04:34;;;;;;;7.70;3.30;;;;;;;20.37;82.03;99185.13;128389;1281;128619;-68
2023/08/02 06:12:44;;;;;;;4.80;2.80;;;;;;;21.03;80.85;99184.13;123149;1289;5421659;-66
2023/08/02 06:16:45;;;;;;;7.40;2.60;;;;;;;21.35;79.44;99183.42;126130;1307;114959;-67
2023/08/02 06:20:28;;;;;;;5.30;2.40;;;;;;;21.74;79.35;99187.26;125205;1306;114915;-66
2023/08/02 06:24:30;;;;;;;5.70;2.80;;;;;;;22.11;77.93;99190.73;125096;1309;114917;-66
2023/08/02 06:28:31;;;;;;;4.30;2.30;;;;;;;22.63;76.79;99186.55;125477;1307;129391;-67
2023/08/02 06:36:41;;;;;;;2.40;1.90;;;;;;;24.04;74.72;99183.08;126519;1305;635903;-65
2023/08/02 06:40:24;;;;;;;;;;;;;;;24.64;72.40;99185.76;129027;1283;128010;-65
2023/08/02 06:48:29;;;;;;;4.70;2.50;;;;;;;25.66;69.55;99179.89;128176;1284;114822;-68
2023/08/02 06:52:24;;;;;;;;;;;;;;;;;;;;;
2023/08/02 06:56:07;;;;;;;6.30;2.40;;;;;;;26.32;66.31;99159.14;125413;1316;115148;-67
2023/08/02 06:59:48;;;;;;;3.30;1.70;;;;;;;26.49;64.79;99158.48;125237;1308;114986;-66
2023/08/02 07:07:41;;;;;;;4.30;1.90;;;;;;;26.82;62.90;99165.83;124499;1326;115557;-70
2023/08/02 07:20:02;;;;;;;2.40;1.70;;;;;;;27.59;59.11;99148.84;126261;1307;636050;-68
2023/08/02 07:28:07;;;;;;;3.50;1.90;;;;;;;27.91;57.48;99148.68;126833;1292;114824;-66
2023/08/02 07:32:12;;;;;;;2.80;1.60;;;;;;;28.34;56.47;99154.98;121836;1313;5445294;-65
2023/08/02 07:36:15;;;;;;;6.20;2.10;;;;;;;28.74;54.69;99141.20;125181;1320;115457;-71
2023/08/02 07:39:40;;;;;;;;;;;;;;;;;;;;;
2023/08/02 07:43:43;;;;;;;2.70;1.60;;;;;;;29.71;53.65;99136.49;124866;1314;119434;-69
2023/08/02 07:50:51;;;;;;;4.00;2.30;;;;;;;30.07;51.29;99146.36;126537;1292;636816;-67
2023/08/02 07:54:55;;;;;;;3.00;1.40;;;;;;;30.28;50.42;99143.48;129373;1269;120366;-66
2023/08/02 07:58:50;;;;;;;4.40;1.70;;;;;;;30.75;50.08;99142.50;128278;1281;115193;-68
2023/08/02 08:02:25;;;;;;;;;;;;;;;;;;;;;
2023/08/02 08:06:26;;;;;;;;;;;;;;;;;;;;;
2023/08/02 08:10:03;;;;;;;4.00;1.70;;;;;;;31.43;47.10;99129.50;127864;1282;114988;-66
2023/08/02 08:14:05;;;;;;;1.80;1.60;;;;;;;31.57;46.80;99130.67;128148;1291;114859;-66
2023/08/02 08:17:17;;;;;;;2.30;1.60;;;;;;;31.49;45.78;99128.73;126285;1294;120120;-65
2023/08/02 08:21:05;;;;;;;4.60;2.00;;;;;;;31.47;44.92;99125.20;126319;1292;116584;-68
2023/08/02 08:24:27;;;;;;;;;;;;;;;;;;;;;
2023/08/02 08:28:10;;;;;;;2.30;1.80;;;;;;;31.49;44.34;99131.06;126326;1292;114829;-67
2023/08/02 08:32:02;;;;;;;4.60;2.00;;;;;;;31.21;44.50;99123.75;126289;1295;114840;-65
2023/08/02 08:35:53;;;;;;;4.70;1.80;;;;;;;31.14;44.49;99128.85;126460;1292;121412;-67
2023/08/02 08:43:23;;;;;;;;;;;;;;;;;;;;;
2023/08/02 08:47:14;;;;;;;3.80;2.10;;;;;;;30.17;43.61;99131.86;126456;1292;115008;-66
2023/08/02 08:51:31;;;;;;;2.40;2.10;;;;;;;29.99;43.72;99128.48;125983;1300;114905;-65
2023/08/02 08:54:36;;;;;;;2.60;1.60;;;;;;;29.51;43.31;99121.98;126286;1289;121145;-66
2023/08/02 08:57:53;;;;;;;4.50;2.00;;;;;;;28.97;43.05;99113.31;126543;1294;115055;-67
2023/08/02 09:01:34;;;;;;;3.10;2.10;;;;;;;28.55;43.22;99111.64;126711;1295;114859;-67
2023/08/02 09:04:44;;;;;;;4.20;1.70;;;;;;;28.19;44.01;99108.96;126043;1300;114921;-66
2023/08/02 09:08:07;;;;;;;2.40;1.90;;;;;;;27.97;43.72;99115.16;126588;1312;114914;-66
2023/08/02 09:11:51;;;;;;;7.60;2.10;;;;;;;27.72;43.77;99116.02;126468;1292;119041;-67
2023/08/02 09:15:20;;;;;;;3.10;2.00;;;;;;;27.43;43.98;99114.30;126998;1289;114996;-66
2023/08/02 09:19:03;;;;;;;4.60;2.20;;;;;;;27.18;44.24;99107.66;127218;1289;114948;-66
2023/08/02 09:22:57;;;;;;;;;;;;;;;;;;;;;
2023/08/02 09:27:10;;;;;;;;;;;;;;;;;;;;;
2023/08/02 09:30:59;;;;;;;2.60;1.70;;;;;;;26.93;45.04;99097.38;127782;1277;119313;-65
2023/08/02 09:35:03;;;;;;;3.10;1.60;;;;;;;26.85;45.41;99094.84;128725;1274;114943;-65
2023/08/02 09:38:34;;;;;;;;;;;;;;;;;;;;;
2023/08/02 09:41:37;;;;;;;2.70;2.00;;;;;;;26.56;45.72;99101.49;128041;1283;114829;-65
2023/08/02 09:45:21;;;;;;;2.60;1.80;;;;;;;26.39;45.68;99101.48;128154;1299;114819;-64
2023/08/02 09:48:43;;;;;;;2.40;1.90;;;;;;;26.18;46.03;99097.63;128263;1280;119933;-67
2023/08/02 09:51:49;;;;;;;2.40;1.90;;;;;;;26.15;46.61;99094.27;128049;1294;114940;-67
2023/08/02 09:55:06;;;;;;;;;;;;;;;;;;;;;
2023/08/02 09:59:11;;;;;;;4.60;1.90;;;;;;;26.10;45.92;99085.33;128334;1291;114915;-67
2023/08/02 10:06:17;;;;;;;3.30;2.50;;;;;;;26.10;46.58;99079.53;128926;1274;120442;-68
2023/08/02 10:09:58;;;;;;;;;;;;;;;;;;;;;
2023/08/02 10:14:02;;;;;;;;;;;;;;;;;;;;;
2023/08/02 10:18:06;;;;;;;1.80;1.50;;;;;;;26.40;45.81;99072.80;129473;1268;115196;-66
2023/08/02 10:21:39;;;;;;;;;;;;;;;;;;;;;
2023/08/02 10:25:42;;;;;;;3.20;1.70;;;;;;;26.28;45.89;99069.61;128903;1275;119485;-68
2023/08/02 10:29:42;;;;;;;;;;;;;;;;;;;;;
2023/08/02 10:33:34;;;;;;;3.20;1.60;;;;;;;26.59;46.03;99057.67;127607;1284;114943;-67
2023/08/02 10:37:05;;;;;;;4.80;1.90;;;;;;;26.75;45.90;99053.35;127749;1284;114848;-66
2023/08/02 10:40:46;;;;;;;;;;;;;;;;;;;;;
2023/08/02 10:44:32;;;;;;;2.10;1.30;;;;;;;26.91;45.41;99049.01;127669;1286;120297;-66
2023/08/02 10:52:05;;;;;;;;;;;;;;;;;;;;;
2023/08/02 10:56:17;;;;;;;3.60;1.50;;;;;;;27.27;45.12;99044.30;127693;1284;115066;-68
2023/08/02 10:59:52;;;;;;;2.30;1.60;;;;;;;27.34;44.77;99038.83;128090;1299;114801;-67
2023/08/02 11:08:11;;;;;;;;;;;;;;;;;;;;;
2023/08/02 11:11:39;;;;;;;;;;;;;;;;;;;;;
2023/08/02 11:15:23;;;;;;;1.90;1.30;;;;;;;27.12;43.88;99029.84;127638;1297;114846;-67
2023/08/02 11:19:04;;;;;;;3.90;1.60;;;;;;;27.12;44.11;99023.66;127960;1280;114996;-68
2023/08/02 11:26:54;;;;;;;1.40;1.30;;;;;;;27.18;43.90;99014.80;128216;1294;114912;-65
2023/08/02 11:31:00;;;;;;;2.70;1.40;;;;;;;27.18;43.49;99012.44;127889;1283;114833;-67
2023/08/02 11:34:49;;;;;;;;;;;;;;;;;;;;;
2023/08/02 11:38:33;;;;;;;1.90;1.30;;;;;;;27.05;44.02;99013.40;126356;1306;114740;-66
2023/08/02 11:42:23;;;;;;;1.40;1.20;;;;;;;27.07;43.45;99007.86;126537;1294;121077;-65
2023/08/02 11:46:21;;;;;;;1.10;1.00;;;;;;;27.06;43.67;98993.70;126315;1293;114945;-66
2023/08/02 11:50:08;;;;;;;3.00;1.60;;;;;;;27.15;44.48;98989.52;125841;1301;114783;-66
2023/08/02 11:54:10;;;;;;;3.20;1.40;;;;;;;27.19;43.84;98976.94;125988;1318;114907;-66
2023/08/02 11:58:01;;;;;;;;;;;;;;;;;;;;;
2023/08/02 12:02:03;;;;;;;2.80;1.60;;;;;;;26.99;44.30;98962.92;124824;1308;121112;-67
2023/08/02 12:06:05;;;;;;;4.30;1.50;;;;;;;26.87;44.12;98962.09;124571;1330;115040;-66
2023/08/02 12:10:06;;;;;;;2.30;1.30;;;;;;;26.76;43.79;98961.15;124545;1325;115124;-66
2023/08/02 12:18:30;;;;;;;3.10;1.50;;;;;;;26.63;43.11;98937.23;126452;1293;636031;-67
2023/08/02 12:22:38;;;;;;;1.50;1.10;;;;;;;26.58;43.77;98930.59;129488;1269;120157;-65
2023/08/02 12:30:38;;;;;;;;;;;;;;;;;;;;;
2023/08/02 12:33:58;;;;;;;1.50;1.20;;;;;;;27.01;43.96;98923.98;127276;1289;114814;-67
2023/08/02 12:37:09;;;;;;;4.00;1.10;;;;;;;27.19;43.63;98920.39;127324;1289;115139;-66
2023/08/02 12:41:13;;;;;;;8.60;1.90;;;;;;;27.25;43.19;98916.39;127291;1288;119785;-66
2023/08/02 12:44:54;;;;;;;2.40;1.60;;;;;;;27.20;42.74;98916.84;125940;1302;114871;-65
2023/08/02 12:48:56;;;;;;;4.80;1.30;;;;;;;27.08;42.43;98907.52;125814;1302;114734;-64
2023/08/02 12:52:36;;;;;;;3.90;1.40;;;;;;;26.99;42.30;98888.98;124607;1313;115321;-65
2023/08/02 13:04:47;;;;;;;;;;;;;;;;;;;;;
2023/08/02 13:08:38;;;;;;;2.50;1.50;;;;;;;26.83;42.13;98908.96;128983;1275;120433;-65
2023/08/02 13:12:43;;;;;;;2.20;1.30;;;;;;;26.78;41.96;98903.75;127920;1283;115193;-66
2023/08/02 13:15:47;;;;;;;2.60;1.50;;;;;;;26.77;42.12;98904.29;125541;1286;5499723;-68
2023/08/02 13:19:19;;;;;;;1.60;1.20;;;;;;;26.73;41.96;98897.04;127236;1289;115329;-66
2023/08/02 13:22:27;;;;;;;1.20;1.00;;;;;;;26.65;41.89;98887.67;127115;1289;114933;-67
2023/08/02 13:26:20;;;;;;;;;;;;;;;;;;;;;
2023/08/02 13:34:00;;;;;;;;;;;;;;;;;;;;;
2023/08/02 13:50:41;;;;;;;2.50;1.70;;;;;;;26.38;40.41;98857.14;127859;1284;119768;-63
2023/08/02 13:54:33;;;;;;;;;;;;;;;;;;;;;
2023/08/02 13:58:36;;;;;;;4.60;1.60;;;;;;;26.05;40.76;98834.08;122952;1284;5455790;-62
2023/08/02 14:02:28;;;;;;;2.50;1.50;;;;;;;25.93;40.74;98825.89;126710;1308;114869;-62
2023/08/02 14:06:08;;;;;;;;;;;;;;;;;;;;;
2023/08/02 14:10:10;;;;;;;4.10;1.50;;;;;;;25.71;40.29;98823.59;125961;1297;114791;-63
2023/08/02 14:14:07;;;;;;;6.10;1.90;;;;;;;25.65;40.40;98825.66;125869;1309;121203;-62
2023/08/02 14:17:56;;;;;;;;;;;;;;;;;;;;;
2023/08/02 14:21:23;;;;;;;3.10;1.90;;;;;;;25.50;40.76;98823.04;126235;1295;636895;-62
2023/08/02 14:24:53;;;;;;;4.00;1.30;;;;;;;25.40;40.66;98819.34;129015;1279;120273;-62
2023/08/02 14:28:07;;;;;;;;;;;;;;;;;;;;;
2023/08/02 14:31:13;;;;;;;2.90;1.50;;;;;;;25.33;40.98;98814.77;130451;1261;114767;-64
2023/08/02 14:34:39;;;;;;;4.30;1.80;;;;;;;25.33;40.99;98808.23;126198;1258;5487081;-65
2023/08/02 14:38:22;;;;;;;3.80;1.50;;;;;;;25.33;41.20;98803.97;130006;1260;114796;-65
2023/08/02 14:41:56;;;;;;;2.80;1.70;;;;;;;25.36;41.44;98796.60;129462;1282;114968;-64
2023/08/02 14:49:33;;;;;;;5.20;1.70;;;;;;;25.37;41.31;98789.38;129059;1273;114841;-67
2023/08/02 14:53:37;;;;;;;2.90;1.40;;;;;;;25.37;41.11;98779.13;128293;1277;114926;-68
2023/08/02 14:57:42;;;;;;;;;;;;;;;;;;;;;
2023/08/02 15:01:59;;;;;;;3.00;1.30;;;;;;;25.45;41.23;98762.75;126723;1310;114876;-63
2023/08/02 15:06:02;;;;;;;5.30;1.90;;;;;;;25.60;41.56;98747.80;125590;1303;121657;-63
2023/08/02 15:09:23;;;;;;;1.50;1.20;;;;;;;25.80;41.28;98736.85;125076;1311;115594;-64
2023/08/02 15:13:18;;;;;;;4.80;1.50;;;;;;;25.93;40.99;98730.48;125072;1307;115207;-66
2023/08/02 15:21:42;;;;;;;1.90;1.60;;;;;;;25.93;40.30;98709.59;126016;1305;636115;-65
2023/08/02 15:25:45;;;;;;;5.90;1.90;;;;;;;25.80;39.83;98705.06;128914;1277;120384;-68
2023/08/02 15:33:55;;;;;;;4.80;1.80;;;;;;;25.53;40.25;98698.63;122984;1294;5440750;-64
2023/08/02 15:37:49;;;;;;;1.90;1.50;;;;;;;25.43;40.08;98690.91;126037;1304;114842;-64
2023/08/02 15:41:51;;;;;;;2.90;1.40;;;;;;;25.43;40.63;98690.16;125679;1302;114927;-67
2023/08/02 15:45:53;;;;;;;1.70;1.30;;;;;;;25.45;40.34;98686.07;125680;1323;121252;-66
2023/08/02 15:49:44;;;;;;;2.00;1.60;;;;;;;25.38;40.57;98681.75;124856;1313;114891;-63
2023/08/02 15:57:29;;;;;;;2.50;1.20;;;;;;;25.11;40.67;98685.52;126305;1296;635743;-67
2023/08/02 16:05:39;;;;;;;2.60;1.30;;;;;;;25.07;41.33;98673.92;128150;1277;114763;-66
2023/08/02 16:09:40;;;;;;;2.70;1.50;;;;;;;25.09;41.25;98671.73;127500;1286;114849;-68
2023/08/02 16:13:32;;;;;;;3.00;1.50;;;;;;;25.07;41.58;98666.64;124850;1292;115405;-65
2023/08/02 16:17:39;;;;;;;2.10;1.50;;;;;;;25.06;41.70;98658.09;126754;1292;114755;-65
2023/08/02 16:21:46;;;;;;;4.90;1.80;;;;;;;25.04;41.82;98654.96;126384;1292;114984;-64
2023/08/02 16:25:48;;;;;;;2.70;1.60;;;;;;;25.01;42.00;98645.35;125340;1303;130136;-66
2023/08/02 16:29:49;;;;;;;5.40;1.60;;;;;;;24.94;42.05;98648.89;124949;1313;114997;-66
2023/08/02 16:33:50;;;;;;;2.30;1.40;;;;;;;24.85;42.22;98648.17;123574;1324;115371;-66
2023/08/02 16:42:16;;;;;;;2.10;1.60;;;;;;;24.77;42.78;98643.88;126502;1298;636904;-66
2023/08/02 16:45:30;;;;;;;6.20;1.60;;;;;;;24.67;42.80;98648.50;127537;1287;129026;-66
2023/08/02 16:49:04;;;;;;;6.70;2.00;;;;;;;24.61;43.02;98647.03;127535;1296;114869;-66
2023/08/02 16:52:39;;;;;;;;;;;;;;;;;;;;;
2023/08/02 16:56:44;;;;;;;7.00;1.80;;;;;;;24.49;43.26;98643.00;123009;1289;5437998;-66
2023/08/02 17:00:27;;;;;;;4.30;2.00;;;;;;;24.43;43.49;98636.51;125941;1299;114911;-66
2023/08/02 17:04:09;;;;;;;7.30;1.90;;;;;;;24.35;43.58;98633.03;124477;1332;114877;-67
2023/08/02 17:07:53;;;;;;;2.70;2.00;;;;;;;24.29;43.53;98636.40;124272;1318;129613;-66
2023/08/02 17:11:24;;;;;;;;;;;;;;;;;;;;;
2023/08/02 17:15:15;;;;;;;;;;;;;;;;;;;;;
2023/08/02 17:19:00;;;;;;;4.70;3.20;;;;;;;24.14;43.97;98647.91;124486;1313;114890;-64
2023/08/02 17:23:01;;;;;;;6.00;2.10;;;;;;;24.09;44.33;98647.48;124959;1312;114974;-68
2023/08/02 17:27:03;;;;;;;5.00;1.80;;;;;;;24.03;44.29;98657.40;125684;1304;127899;-66
2023/08/02 17:30:42;;;;;;;5.30;1.90;;;;;;;23.97;44.76;98661.20;125567;1301;116588;-64
2023/08/02 17:34:31;;;;;;;5.60;1.90;;;;;;;23.90;44.91;98663.59;124923;1307;115306;-65
2023/08/02 17:37:40;;;;;;;2.40;2.00;;;;;;;23.83;45.53;98663.73;124505;1325;114980;-63
2023/08/02 17:41:32;;;;;;;;;;;;;;;;;;;;;
2023/08/02 17:45:36;;;;;;;17.50;2.70;;;;;;;23.70;45.75;98668.91;125664;1304;130255;-62
2023/08/02 17:49:22;;;;;;;6.40;2.00;;;;;;;23.63;46.15;98664.96;124727;1318;116621;-63
2023/08/02 17:53:00;;;;;;;3.00;1.90;;;;;;;23.53;46.32;98657.67;125358;1307;114992;-64
2023/08/02 17:57:01;;;;;;;9.30;2.60;;;;;;;23.46;46.57;98660.91;124856;1313;115097;-65
2023/08/02 18:01:02;;;;;;;2.90;2.00;;;;;;;23.39;47.28;98669.10;125163;1317;114834;-65
2023/08/02 18:04:56;;;;;;;3.90;1.80;;;;;;;23.30;48.16;98670.61;124544;1326;127649;-66
2023/08/02 18:12:49;;;;;;;;;;;;;;;;;;;;;
2023/08/02 18:16:44;;;;;;;2.50;2.00;;;;;;;22.97;49.34;98668.80;125708;1304;114922;-67
2023/08/02 18:20:46;;;;;;;3.60;2.20;;;;;;;22.89;49.45;98668.73;125439;1311;114838;-66
2023/08/02 18:24:47;;;;;;;2.80;2.20;;;;;;;22.82;49.51;98664.38;124183;1315;129917;-65
2023/08/02 18:28:30;;;;;;;7.20;2.50;;;;;;;22.75;49.48;98662.35;124368;1314;116697;-67
2023/08/02 18:32:32;;;;;;;5.20;2.10;;;;;;;22.68;49.69;98659.94;123567;1338;114944;-64
2023/08/02 18:36:33;;;;;;;6.00;2.20;;;;;;;22.61;49.90;98652.81;123262;1342;114970;-65
2023/08/02 18:40:35;;;;;;;5.20;1.80;;;;;;;22.53;50.18;98648.48;123285;1324;115048;-64
2023/08/02 18:44:27;;;;;;;4.60;2.20;;;;;;;22.48;50.40;98647.33;124417;1323;129927;-65
2023/08/02 18:48:29;;;;;;;3.20;2.10;;;;;;;22.43;50.66;98645.04;124308;1309;115350;-63
2023/08/02 18:52:31;;;;;;;3.20;2.10;;;;;;;22.38;50.87;98648.64;125724;1314;114933;-62
2023/08/02 18:56:31;;;;;;;6.40;2.30;;;;;;;22.31;51.13;98637.98;125298;1306;114969;-66
2023/08/02 19:00:33;;;;;;;8.00;2.80;;;;;;;22.24;51.40;98622.34;125039;1312;114884;-65
2023/08/02 19:04:16;;;;;;;9.40;2.30;;;;;;;22.17;51.74;98613.72;124419;1322;128162;-68
2023/08/02 19:08:18;;;;;;;3.20;2.00;;;;;;;22.11;51.96;98597.91;125216;1316;114982;-65
2023/08/02 19:12:22;;;;;;;8.60;2.20;;;;;;;22.03;52.10;98581.50;125548;1301;114972;-67
2023/08/02 19:16:24;;;;;;;10.10;2.50;;;;;;;21.93;52.38;98588.66;124762;1329;115073;-65
2023/08/02 19:24:21;;;;;;;;;;;;;;;;;;;;;
2023/08/02 19:28:08;;;;;;;3.80;2.50;;;;;;;21.70;53.01;98545.54;125946;1305;636271;-65
2023/08/02 19:31:55;;;;;;;5.20;2.90;;;;;;;21.63;53.29;98519.34;129018;1273;127923;-63
2023/08/02 19:35:49;;;;;;;;;;;;;;;;;;;;;
2023/08/02 19:43:25;;;;;;;4.50;2.30;;;;;;;21.50;53.83;98523.67;123060;1292;117574;-66
2023/08/02 19:47:16;;;;;;;3.90;2.10;;;;;;;21.45;53.86;98547.30;126973;1293;114976;-66
2023/08/02 19:55:08;;;;;;;;;;;;;;;;;;;;;
2023/08/02 20:03:12;;;;;;;4.50;2.30;;;;;;;21.23;54.84;98559.45;125507;1308;114958;-66
2023/08/02 20:11:17;;;;;;;4.80;2.40;;;;;;;21.04;55.24;98553.92;124401;1316;116591;-66
2023/08/02 20:15:19;;;;;;;2.60;2.00;;;;;;;20.94;55.65;98552.63;123961;1319;130514;-62
2023/08/02 20:18:39;;;;;;;3.00;2.10;;;;;;;20.84;56.08;98548.25;124227;1316;116677;-66
2023/08/02 20:22:10;;;;;;;2.70;2.40;;;;;;;20.75;56.28;98546.16;125495;1321;114865;-67
2023/08/02 20:26:14;;;;;;;5.20;3.00;;;;;;;20.68;56.67;98537.39;125871;1304;114849;-67
2023/08/02 20:34:15;;;;;;;6.50;2.60;;;;;;;20.49;57.59;98527.71;125516;1304;129710;-66
2023/08/02 20:37:36;;;;;;;;;;;;;;;;;;;;;
2023/08/02 20:41:38;;;;;;;5.00;2.80;;;;;;;20.34;58.05;98529.23;125687;1301;114975;-66
2023/08/02 20:45:19;;;;;;;3.80;2.70;;;;;;;20.28;58.45;98560.75;125378;1304;114990;-67
2023/08/02 20:48:43;;;;;;;3.80;2.60;;;;;;;20.21;58.77;98590.30;125801;1295;115112;-67
2023/08/02 20:52:40;;;;;;;5.20;2.50;;;;;;;20.16;59.19;98585.93;126386;1317;128108;-67
2023/08/02 20:56:32;;;;;;;4.50;2.90;;;;;;;20.12;59.53;98579.34;125859;1301;115138;-66
2023/08/02 21:00:28;;;;;;;;;;;;;;;;;;;;;
2023/08/02 21:04:29;;;;;;;;;;;;;;;;;;;;;
2023/08/02 21:07:56;;;;;;;4.10;2.60;;;;;;;19.91;60.54;98575.80;125654;1304;115012;-67
2023/08/02 21:11:46;;;;;;;;;;;;;;;;;;;;;
2023/08/02 21:15:48;;;;;;;6.00;2.70;;;;;;;19.77;61.21;98577.44;125587;1296;115339;-66
2023/08/02 21:19:41;;;;;;;6.10;3.00;;;;;;;19.69;61.34;98577.08;125162;1324;114885;-66
2023/08/02 21:23:15;;;;;;;;;;;;;;;;;;;;;
2023/08/02 21:27:09;;;;;;;;;;;;;;;;;;;;;
2023/08/02 21:31:02;;;;;;;5.30;2.90;;;;;;;19.47;62.48;98596.10;125030;1310;129751;-66
2023/08/02 21:34:36;;;;;;;9.30;3.00;;;;;;;19.40;62.64;98590.77;125018;1311;115410;-66
2023/08/02 21:38:38;;;;;;;5.70;2.90;;;;;;;19.36;63.01;98571.70;125475;1308;114944;-66
2023/08/02 21:46:36;;;;;;;;;;;;;;;;;;;;;
2023/08/02 21:50:29;;;;;;;;;;;;;;;;;;;;;
2023/08/02 21:58:29;;;;;;;6.50;2.90;;;;;;;19.24;64.35;98577.65;126017;1298;114836;-66
2023/08/02 22:02:26;;;;;;;5.90;3.20;;;;;;;19.25;64.63;98589.66;125650;1305;114918;-67
2023/08/02 22:06:15;;;;;;;4.10;2.80;;;;;;;19.25;64.79;98595.19;125054;1325;114904;-67
2023/08/02 22:10:11;;;;;;;;;;;;;;;;;;;;;
2023/08/02 22:14:07;;;;;;;9.10;3.60;;;;;;;19.26;65.25;98606.35;124271;1319;115321;-68
2023/08/02 22:17:57;;;;;;;;;;;;;;;;;;;;;
2023/08/02 22:21:51;;;;;;;;;;;;;;;;;;;;;
2023/08/02 22:30:16;;;;;;;6.20;3.90;;;;;;;19.39;68.31;98653.29;126591;1303;636046;-67
2023/08/02 22:34:19;;;;;;;6.50;3.30;;;;;;;19.35;69.26;98663.42;128353;1283;127997;-66
2023/08/02 22:38:21;;;;;;;5.90;3.40;;;;;;;19.32;69.89;98676.04;128062;1282;115520;-66
2023/08/02 22:42:03;;;;;;;10.00;3.80;;;;;;;19.30;70.45;98672.38;123239;1289;5431752;-66
2023/08/02 22:45:50;;;;;;;8.80;4.10;;;;;;;19.27;70.98;98673.92;126773;1294;114948;-66
2023/08/02 22:49:16;;;;;;;9.40;4.00;;;;;;;19.24;71.36;98657.23;126850;1310;114775;-65
2023/08/02 22:52:27;;;;;;;5.70;3.60;;;;;;;19.21;71.42;98660.63;126824;1310;128989;-65
2023/08/02 22:55:38;;;;;;;4.60;2.80;;;;;;;19.18;71.60;98666.23;126800;1293;115345;-67
2023/08/02 22:59:07;;;;;;;6.10;2.90;;;;;;;19.15;71.74;98640.77;126850;1293;114930;-66
2023/08/02 23:02:48;;;;;;;;;;;;;;;;;;;;;
2023/08/02 23:05:54;;;;;;;4.60;3.20;;;;;;;19.06;72.22;98650.27;126763;1293;114922;-66
2023/08/02 23:09:25;;;;;;;4.40;3.00;;;;;;;19.05;72.56;98638.02;126830;1288;129116;-66
2023/08/02 23:17:33;;;;;;;2.80;2.60;;;;;;;18.99;73.14;98628.88;127371;1290;114964;-66
2023/08/02 23:21:31;;;;;;;3.70;2.70;;;;;;;18.92;73.69;98606.89;127895;1288;114907;-66
2023/08/02 23:25:24;;;;;;;3.20;2.70;;;;;;;18.86;73.91;98614.45;128297;1296;114862;-66
2023/08/02 23:29:27;;;;;;;3.40;2.30;;;;;;;18.81;74.27;98594.17;127860;1286;128922;-67
2023/08/02 23:32:51;;;;;;;7.90;2.90;;;;;;;18.76;74.57;98578.75;126765;1300;115415;-66
2023/08/02 23:36:55;;;;;;;3.40;2.50;;;;;;;18.74;74.90;98587.91;126780;1291;116798;-65
2023/08/02 23:44:48;;;;;;;2.50;2.20;;;;;;;18.70;75.38;98599.95;124980;1320;115477;-67
2023/08/02 23:48:19;;;;;;;3.10;1.90;;;;;;;18.67;75.90;98591.30;124656;1310;129933;-66
2023/08/02 23:52:21;;;;;;;2.50;2.10;;;;;;;18.66;75.98;98609.72;124990;1320;115627;-65
2023/08/02 23:56:23;;;;;;;3.50;2.50;;;;;;;18.65;76.26;98647.21;125046;1318;114908;-66
